createdAt,value
2024-01-07T00:01:23.892Z,2.67
2024-01-07T00:04:47.188Z,2.53
2024-01-07T00:08:09.570Z,4.30
2024-01-07T00:11:31.195Z,3.73
2024-01-07T00:14:52.605Z,2.17
2024-01-07T00:18:14.125Z,3.10
2024-01-07T00:21:37.550Z,2.47
2024-01-07T00:24:59.613Z,1.40
2024-01-07T00:28:20.987Z,1.87
2024-01-07T00:31:43.015Z,2.83
2024-01-07T00:35:04.968Z,1.93
2024-01-07T00:38:27.978Z,1.50
2024-01-07T00:41:49.366Z,1.67
2024-01-07T00:45:11.600Z,3.60
2024-01-07T00:48:33.109Z,1.60
2024-01-07T00:51:54.825Z,2.17
2024-01-07T00:55:17.555Z,2.37
2024-01-07T00:58:39.293Z,1.73
2024-01-07T01:02:00.933Z,3.10
2024-01-07T01:05:22.275Z,1.50
2024-01-07T01:08:43.707Z,2.20
2024-01-07T01:12:07.000Z,2.93
2024-01-07T01:15:28.535Z,1.77
2024-01-07T01:18:50.139Z,3.03
2024-01-07T01:22:12.066Z,3.07
2024-01-07T01:25:33.387Z,2.00
2024-01-07T01:28:56.448Z,2.13
2024-01-07T01:32:18.064Z,1.77
2024-01-07T01:35:39.741Z,2.03
2024-01-07T01:39:01.155Z,1.40
2024-01-07T01:42:22.659Z,1.63
2024-01-07T01:45:45.853Z,2.97
2024-01-07T01:49:08.577Z,2.03
2024-01-07T01:52:30.560Z,1.80
2024-01-07T01:55:52.077Z,3.47
2024-01-07T01:59:14.462Z,1.90
2024-01-07T02:02:37.802Z,1.97
2024-01-07T02:06:00.127Z,2.00
2024-01-07T02:09:21.672Z,3.47
2024-01-07T02:12:43.129Z,1.30
2024-01-07T02:16:05.241Z,1.67
2024-01-07T02:19:28.400Z,1.87
2024-01-07T02:22:50.047Z,1.37
2024-01-07T02:26:12.942Z,1.90
2024-01-07T02:29:34.267Z,1.10
2024-01-07T02:32:55.886Z,3.37
2024-01-07T02:36:18.076Z,2.43
2024-01-07T02:39:39.944Z,2.60
2024-01-07T02:43:02.744Z,2.83
2024-01-07T02:46:26.359Z,2.20
2024-01-07T02:49:48.252Z,2.00
2024-01-07T02:53:11.968Z,3.07
2024-01-07T02:56:33.641Z,1.53
2024-01-07T02:59:56.402Z,2.70
2024-01-07T03:03:18.374Z,2.13
2024-01-07T03:06:39.834Z,1.60
2024-01-07T03:10:01.402Z,4.77
2024-01-07T03:13:22.908Z,1.80
2024-01-07T03:16:45.536Z,2.17
2024-01-07T03:20:08.291Z,2.30
2024-01-07T03:23:29.589Z,1.63
2024-01-07T03:26:51.175Z,1.77
2024-01-07T03:30:13.494Z,5.17
2024-01-07T03:33:36.601Z,2.13
2024-01-07T03:36:58.660Z,1.77
2024-01-07T03:40:20.610Z,1.30
2024-01-07T03:43:41.988Z,1.20
2024-01-07T03:47:03.417Z,1.50
2024-01-07T03:50:26.380Z,2.10
2024-01-07T03:53:47.929Z,1.30
2024-01-07T03:57:09.654Z,3.20
2024-01-07T04:00:31.019Z,2.90
2024-01-07T04:03:52.797Z,2.10
2024-01-07T04:07:15.566Z,3.27
2024-01-07T04:10:36.817Z,3.13
2024-01-07T04:13:58.227Z,1.57
2024-01-07T04:17:19.695Z,1.37
2024-01-07T04:20:41.304Z,2.23
2024-01-07T04:24:04.319Z,1.80
2024-01-07T04:27:26.298Z,0.70
2024-01-07T04:30:50.013Z,1.87
2024-01-07T04:34:11.669Z,1.23
2024-01-07T04:37:33.137Z,0.63
2024-01-07T04:40:56.213Z,1.37
2024-01-07T04:44:17.924Z,1.07
2024-01-07T04:47:39.189Z,1.90
2024-01-07T04:51:00.603Z,2.80
2024-01-07T04:54:21.930Z,0.50
2024-01-07T04:57:44.661Z,2.40
2024-01-07T05:01:06.294Z,2.67
2024-01-07T05:04:27.780Z,1.47
2024-01-07T05:07:49.364Z,1.30
2024-01-07T05:11:11.037Z,1.63
2024-01-07T05:14:33.865Z,3.43
2024-01-07T05:17:55.222Z,1.37
2024-01-07T05:21:17.065Z,2.90
2024-01-07T05:24:39.646Z,2.13
2024-01-07T05:28:01.321Z,1.77
2024-01-07T05:31:24.132Z,1.70
2024-01-07T05:34:45.386Z,1.10
2024-01-07T05:38:06.708Z,2.27
2024-01-07T05:41:28.054Z,1.23
2024-01-07T05:44:49.480Z,0.90
2024-01-07T05:48:12.328Z,0.63
2024-01-07T05:51:34.356Z,1.33
2024-01-07T05:54:55.774Z,3.00
2024-01-07T05:58:17.086Z,1.00
2024-01-07T06:01:38.736Z,1.70
2024-01-07T06:05:01.812Z,2.70
2024-01-07T06:08:23.438Z,1.00
2024-01-07T06:11:45.030Z,1.63
2024-01-07T06:15:07.582Z,1.23
2024-01-07T06:18:29.349Z,1.47
2024-01-07T06:21:52.393Z,1.03
2024-01-07T06:25:13.697Z,1.13
2024-01-07T06:28:35.153Z,1.20
2024-01-07T06:31:56.619Z,3.30
2024-01-07T06:35:17.984Z,1.93
2024-01-07T06:38:40.604Z,3.87
2024-01-07T06:42:02.257Z,1.17
2024-01-07T06:45:23.719Z,2.37
2024-01-07T06:48:48.652Z,1.53
2024-01-07T06:52:12.398Z,1.97
2024-01-07T06:55:35.346Z,1.50
2024-01-07T06:58:56.806Z,1.33
2024-01-07T07:02:18.461Z,1.87
2024-01-07T07:05:39.967Z,2.00
2024-01-07T07:09:01.185Z,2.60
2024-01-07T07:12:23.868Z,5.50
2024-01-07T07:15:45.136Z,3.00
2024-01-07T07:19:06.620Z,4.33
2024-01-07T07:22:28.326Z,3.23
2024-01-07T07:25:49.805Z,2.17
2024-01-07T07:29:12.609Z,2.77
2024-01-07T07:32:33.971Z,2.90
2024-01-07T07:35:55.395Z,2.97
2024-01-07T07:39:17.020Z,5.80
2024-01-07T07:42:38.373Z,7.47
2024-01-07T07:46:04.337Z,6.37
2024-01-07T07:49:28.494Z,2.80
2024-01-07T07:52:50.368Z,4.07
2024-01-07T07:56:11.793Z,4.33
2024-01-07T07:59:33.287Z,3.60
2024-01-07T08:02:56.302Z,4.73
2024-01-07T08:06:17.722Z,3.80
2024-01-07T08:09:39.585Z,3.57
2024-01-07T08:13:00.866Z,3.57
2024-01-07T08:16:22.781Z,6.90
2024-01-07T08:19:45.549Z,2.90
2024-01-07T08:23:07.379Z,3.67
2024-01-07T08:26:28.908Z,5.27
2024-01-07T08:29:50.422Z,6.43
2024-01-07T08:33:12.232Z,4.00
2024-01-07T08:36:35.425Z,6.33
2024-01-07T08:39:56.954Z,3.83
2024-01-07T08:43:18.532Z,6.63
2024-01-07T08:46:39.799Z,3.17
2024-01-07T08:50:01.378Z,5.00
2024-01-07T08:53:24.510Z,3.50
2024-01-07T08:56:46.271Z,4.37
2024-01-07T09:00:09.651Z,5.20
2024-01-07T09:03:31.476Z,3.27
2024-01-07T09:06:53.241Z,5.97
2024-01-07T09:10:16.137Z,4.87
2024-01-07T09:13:39.300Z,3.47
2024-01-07T09:17:03.880Z,4.90
2024-01-07T09:20:26.051Z,3.90
2024-01-07T09:23:47.731Z,3.07
2024-01-07T09:27:10.672Z,3.57
2024-01-07T09:30:32.554Z,4.90
2024-01-07T09:33:54.559Z,3.30
2024-01-07T09:37:16.190Z,5.97
2024-01-07T09:40:39.950Z,2.57
2024-01-07T09:44:03.649Z,2.60
2024-01-07T09:47:25.879Z,3.20
2024-01-07T09:50:47.560Z,3.00
2024-01-07T09:54:12.361Z,4.13
2024-01-07T09:57:34.038Z,4.10
2024-01-07T10:00:56.995Z,4.67
2024-01-07T10:04:19.159Z,3.00
2024-01-07T10:07:40.710Z,3.97
2024-01-07T10:11:02.840Z,3.57
2024-01-07T10:14:25.865Z,2.03
2024-01-07T10:17:49.452Z,3.43
2024-01-07T10:21:11.265Z,3.20
2024-01-07T10:24:39.900Z,3.87
2024-01-07T10:28:02.375Z,9.23
2024-01-07T10:31:24.096Z,2.87
2024-01-07T10:34:49.265Z,2.53
2024-01-07T10:38:11.276Z,2.27
2024-01-07T10:41:33.888Z,4.73
2024-01-07T10:44:55.445Z,3.20
2024-01-07T10:48:21.092Z,2.00
2024-01-07T10:51:45.186Z,2.10
2024-01-07T10:55:12.745Z,2.33
2024-01-07T10:58:35.371Z,2.77
2024-01-07T11:02:01.015Z,3.93
2024-01-07T11:05:29.059Z,2.97
2024-01-07T11:08:57.950Z,4.67
2024-01-07T11:12:20.006Z,2.47
2024-01-07T11:15:54.798Z,5.17
2024-01-07T11:19:16.960Z,5.73
2024-01-07T11:22:39.362Z,2.90
2024-01-07T11:26:02.787Z,2.43
2024-01-07T11:29:24.138Z,4.30
2024-01-07T11:32:48.963Z,2.60
2024-01-07T11:36:13.869Z,3.93
2024-01-07T11:39:36.759Z,2.57
2024-01-07T11:42:59.712Z,5.90
2024-01-07T11:46:21.137Z,3.50
2024-01-07T11:49:43.002Z,4.97
2024-01-07T11:53:05.190Z,2.70
2024-01-07T11:56:27.047Z,3.03
2024-01-07T11:59:49.945Z,2.67
2024-01-07T12:03:13.194Z,2.63
2024-01-07T12:06:34.544Z,2.87
2024-01-07T12:09:58.312Z,4.53
2024-01-07T12:13:21.240Z,2.30
2024-01-07T12:16:44.101Z,2.43
2024-01-07T12:20:08.021Z,3.10
2024-01-07T12:23:29.788Z,3.13
2024-01-07T12:26:51.348Z,2.63
2024-01-07T12:30:13.865Z,2.77
2024-01-07T12:33:39.777Z,3.13
2024-01-07T12:37:03.344Z,5.13
2024-01-07T12:40:25.999Z,3.83
2024-01-07T12:43:47.759Z,4.07
2024-01-07T12:47:09.243Z,2.50
2024-01-07T12:50:32.746Z,1.93
2024-01-07T12:53:54.539Z,3.77
2024-01-07T12:57:15.984Z,3.70
2024-01-07T13:00:37.532Z,2.23
2024-01-07T13:04:00.392Z,3.30
2024-01-07T13:07:24.399Z,1.97
2024-01-07T13:10:46.616Z,2.83
2024-01-07T13:14:08.544Z,3.67
2024-01-07T13:17:31.341Z,2.43
2024-01-07T13:20:52.912Z,1.93
2024-01-07T13:24:15.977Z,4.10
2024-01-07T13:27:38.170Z,3.13
2024-01-07T13:31:00.252Z,4.17
2024-01-07T13:34:22.137Z,4.60
2024-01-07T13:37:43.977Z,2.57
2024-01-07T13:41:06.963Z,1.70
2024-01-07T13:44:28.896Z,1.53
2024-01-07T13:47:50.488Z,1.90
2024-01-07T13:51:12.427Z,2.23
2024-01-07T13:54:34.241Z,2.10
2024-01-07T13:57:58.186Z,2.57
2024-01-07T14:01:20.109Z,2.57
2024-01-07T14:04:41.870Z,1.73
2024-01-07T14:08:03.343Z,3.03
2024-01-07T14:11:24.801Z,1.90
2024-01-07T14:14:47.653Z,2.90
2024-01-07T14:18:11.182Z,2.03
2024-01-07T14:21:33.034Z,3.27
2024-01-07T14:24:54.888Z,3.60
2024-01-07T14:28:16.403Z,1.80
2024-01-07T14:31:39.260Z,1.40
2024-01-07T14:35:01.476Z,2.10
2024-01-07T14:38:23.065Z,4.53
2024-01-07T14:41:45.448Z,2.20
2024-01-07T14:45:07.610Z,1.57
2024-01-07T14:48:31.053Z,2.07
2024-01-07T14:51:52.568Z,1.63
2024-01-07T14:55:14.472Z,1.73
2024-01-07T14:58:36.274Z,1.27
2024-01-07T15:01:57.881Z,1.37
2024-01-07T15:05:21.072Z,1.60
2024-01-07T15:08:43.434Z,3.40
2024-01-07T15:12:05.226Z,4.37
2024-01-07T15:15:30.619Z,2.63
2024-01-07T15:18:52.554Z,2.40
2024-01-07T15:22:15.728Z,5.20
2024-01-07T15:25:37.623Z,2.70
2024-01-07T15:28:59.451Z,1.87
2024-01-07T15:32:21.125Z,2.30
2024-01-07T15:35:42.815Z,3.03
2024-01-07T15:39:05.871Z,1.77
2024-01-07T15:42:27.660Z,1.80
2024-01-07T15:45:49.296Z,1.37
2024-01-07T15:49:11.034Z,2.37
2024-01-07T15:52:32.502Z,1.30
2024-01-07T15:55:55.323Z,2.10
2024-01-07T15:59:18.541Z,2.23
2024-01-07T16:02:39.962Z,1.50
2024-01-07T16:06:01.586Z,1.70
2024-01-07T16:09:23.302Z,1.80
2024-01-07T16:12:46.092Z,3.27
2024-01-07T16:16:07.834Z,2.30
2024-01-07T16:19:30.197Z,2.60
2024-01-07T16:22:51.838Z,2.57
2024-01-07T16:26:13.153Z,2.30
2024-01-07T16:29:44.150Z,2.30
2024-01-07T16:33:09.834Z,3.90
2024-01-07T16:36:31.728Z,3.20
2024-01-07T16:39:53.044Z,2.70
2024-01-07T16:43:14.485Z,4.17
2024-01-07T16:46:37.788Z,3.17
2024-01-07T16:53:23.669Z,2.93
2024-01-07T16:56:45.779Z,3.03
2024-01-07T17:00:08.944Z,3.10
2024-01-07T17:03:31.979Z,4.20
2024-01-07T17:06:53.570Z,3.93
2024-01-07T17:10:14.947Z,6.23
2024-01-07T17:13:38.129Z,3.30
2024-01-07T17:16:59.550Z,3.57
2024-01-07T17:20:22.544Z,6.73
2024-01-07T17:23:48.227Z,4.90
2024-01-07T17:27:09.886Z,7.07
2024-01-07T17:30:31.294Z,3.70
2024-01-07T17:33:52.638Z,5.17
2024-01-07T17:37:15.482Z,3.83
2024-01-07T17:40:36.819Z,4.97
2024-01-07T17:43:58.349Z,7.07
2024-01-07T17:47:19.852Z,7.40
2024-01-07T17:50:47.295Z,7.73
2024-01-07T17:54:12.948Z,6.80
2024-01-07T17:57:35.145Z,7.20
2024-01-07T18:00:58.757Z,8.50
2024-01-07T18:04:20.224Z,4.67
2024-01-07T18:07:41.757Z,7.17
2024-01-07T18:11:06.724Z,5.40
2024-01-07T18:14:28.699Z,3.50
2024-01-07T18:17:50.596Z,3.27
2024-01-07T18:21:15.966Z,3.50
2024-01-07T18:24:37.835Z,3.47
2024-01-07T18:28:00.525Z,4.70
2024-01-07T18:31:21.960Z,3.67
2024-01-07T18:34:45.005Z,3.30
2024-01-07T18:38:08.612Z,4.57
2024-01-07T18:41:30.433Z,9.80
2024-01-07T18:44:53.371Z,8.60
2024-01-07T18:48:16.471Z,4.30
2024-01-07T18:51:41.845Z,5.57
2024-01-07T18:55:03.624Z,3.63
2024-01-07T18:58:25.287Z,6.47
2024-01-07T19:01:48.164Z,4.57
2024-01-07T19:05:10.593Z,6.90
2024-01-07T19:08:32.555Z,5.07
2024-01-07T19:11:54.214Z,5.83
2024-01-07T19:15:16.071Z,6.73
2024-01-07T19:18:38.937Z,4.20
2024-01-07T19:22:00.700Z,6.00
2024-01-07T19:25:22.014Z,5.77
2024-01-07T19:28:43.755Z,9.33
2024-01-07T19:32:06.460Z,4.73
2024-01-07T19:35:31.013Z,4.33
2024-01-07T19:38:53.747Z,8.57
2024-01-07T19:42:15.788Z,4.63
2024-01-07T19:45:38.740Z,5.67
2024-01-07T19:49:03.259Z,5.00
2024-01-07T19:52:26.178Z,4.67
2024-01-07T19:55:48.727Z,7.53
2024-01-07T19:59:10.438Z,5.53
2024-01-07T20:02:32.314Z,4.30
2024-01-07T20:05:53.869Z,6.07
2024-01-07T20:09:16.916Z,6.17
2024-01-07T20:12:38.446Z,5.00
2024-01-07T20:16:01.898Z,4.73
2024-01-07T20:19:23.467Z,5.63
2024-01-07T20:22:44.926Z,4.07
2024-01-07T20:26:07.682Z,5.83
2024-01-07T20:29:29.321Z,5.33
2024-01-07T20:32:50.822Z,5.57
2024-01-07T20:36:13.285Z,5.33
2024-01-07T20:39:36.608Z,5.07
2024-01-07T20:43:00.003Z,4.47
2024-01-07T20:46:22.250Z,5.13
2024-01-07T20:49:44.028Z,7.77
2024-01-07T20:53:05.820Z,6.07
2024-01-07T20:56:27.581Z,8.23
2024-01-07T20:59:50.764Z,5.00
2024-01-07T21:03:12.357Z,6.57
2024-01-07T21:06:33.888Z,7.57
2024-01-07T21:09:55.250Z,7.43
2024-01-07T21:13:16.914Z,7.00
2024-01-07T21:16:39.539Z,6.17
2024-01-07T21:20:01.377Z,5.70
2024-01-07T21:23:23.128Z,7.00
2024-01-07T21:26:44.533Z,8.57
2024-01-07T21:30:07.120Z,7.07
2024-01-07T21:33:29.918Z,6.47
2024-01-07T21:36:52.302Z,7.20
2024-01-07T21:40:13.917Z,7.43
2024-01-07T21:43:35.460Z,7.57
2024-01-07T21:46:56.902Z,7.57
2024-01-07T21:50:19.813Z,6.97
2024-01-07T21:53:41.744Z,7.90
2024-01-07T21:57:03.919Z,6.47
2024-01-07T22:00:25.921Z,6.97
2024-01-07T22:03:47.307Z,8.07
2024-01-07T22:07:10.284Z,10.13
2024-01-07T22:10:32.912Z,7.47
2024-01-07T22:13:54.264Z,9.30
2024-01-07T22:17:17.498Z,7.00
2024-01-07T22:20:39.966Z,7.87
2024-01-07T22:24:03.516Z,6.90
2024-01-07T22:27:25.041Z,6.37
2024-01-07T22:30:46.726Z,6.03
2024-01-07T22:34:10.995Z,6.40
2024-01-07T22:37:32.708Z,8.30
2024-01-07T22:40:55.469Z,6.13
2024-01-07T22:44:17.155Z,6.47
2024-01-07T22:47:39.295Z,8.17
2024-01-07T22:51:00.902Z,6.40
2024-01-07T22:54:22.568Z,5.50
2024-01-07T22:57:46.359Z,4.00
2024-01-07T23:01:07.878Z,4.73
2024-01-07T23:04:29.897Z,4.03
2024-01-07T23:07:51.312Z,4.83
2024-01-07T23:11:12.791Z,3.90
2024-01-07T23:14:35.643Z,4.83
2024-01-07T23:17:57.422Z,4.03
2024-01-07T23:21:20.532Z,7.10
2024-01-07T23:24:42.207Z,4.17
2024-01-07T23:28:04.104Z,4.87
2024-01-07T23:31:26.960Z,4.43
2024-01-07T23:34:49.031Z,3.27
2024-01-07T23:38:10.308Z,4.17
2024-01-07T23:41:32.059Z,5.30
2024-01-07T23:44:53.873Z,4.57
2024-01-07T23:48:16.662Z,4.67
2024-01-07T23:51:38.548Z,6.60
2024-01-07T23:55:00.623Z,2.37
2024-01-07T23:58:22.005Z,5.07
